Terminal Aerodrome Forecast
Issued by NWS

Home | Current Version | Previous Version | Graphics & Text | Print | Product List | Glossary On
Versions: 1 2 3 4 5 6 7 8 9 10 11 12
505
FTUS43 KTOP 051720
TAFMHK
TAF
KMHK 051720Z 0518/0618 24007KT P6SM BKN070
     FM060200 29003KT P6SM SCT035 BKN100=

USA.gov is the U.S. government's official web portal to all federal, state and local government web resources and services.